Terminal Aerodrome Forecast
Issued by NWS Duluth, MN

Home | Current Version | Previous Version | Text Only | Print | Product List | Glossary On
Versions: 1 2 3 4 5 6 7 8 9 10 11 12 13 14 15 16 17 18 19 20 21 22 23 24 25 26
084
FTUS43 KDLH 231402 AAB
TAFDLH
TAF AMD
KDLH 231402Z 2314/2412 24006KT P6SM SCT080 BKN120
     FM232100 31005KT P6SM SCT050 BKN100
     FM240000 03005KT P6SM -SHRA VCTS BKN040CB OVC100
     FM240300 08005KT P6SM -SHRA SCT030 OVC040
     FM240700 09005KT 4SM BR SCT004 BKN040=

USA.gov is the U.S. government's official web portal to all federal, state and local government web resources and services.